sensor_id;sensor_type;location;lat;lon;timestamp;P1;durP1;ratioP1;P2;durP2;ratioP2
59998;SDS011;45859;51.378;6.736;2023-04-16T00:00:11;14.00;;;4.83;;
59998;SDS011;45859;51.378;6.736;2023-04-16T00:02:36;11.50;;;5.53;;
59998;SDS011;45859;51.378;6.736;2023-04-16T00:05:02;13.90;;;6.23;;
59998;SDS011;45859;51.378;6.736;2023-04-16T00:07:28;21.33;;;13.80;;
59998;SDS011;45859;51.378;6.736;2023-04-16T00:09:54;10.20;;;6.30;;
59998;SDS011;45859;51.378;6.736;2023-04-16T00:12:20;15.93;;;5.97;;
59998;SDS011;45859;51.378;6.736;2023-04-16T00:14:47;12.53;;;6.20;;
59998;SDS011;45859;51.378;6.736;2023-04-16T00:17:13;12.83;;;5.23;;
59998;SDS011;45859;51.378;6.736;2023-04-16T00:19:39;23.73;;;14.43;;
59998;SDS011;45859;51.378;6.736;2023-04-16T00:22:05;14.17;;;5.43;;
59998;SDS011;45859;51.378;6.736;2023-04-16T00:24:30;12.77;;;5.90;;
59998;SDS011;45859;51.378;6.736;2023-04-16T00:26:59;16.13;;;7.23;;
59998;SDS011;45859;51.378;6.736;2023-04-16T00:29:25;13.60;;;5.47;;
59998;SDS011;45859;51.378;6.736;2023-04-16T00:31:52;14.73;;;6.03;;
59998;SDS011;45859;51.378;6.736;2023-04-16T00:34:18;13.57;;;6.53;;
59998;SDS011;45859;51.378;6.736;2023-04-16T00:36:44;21.10;;;6.97;;
59998;SDS011;45859;51.378;6.736;2023-04-16T00:39:09;14.53;;;7.20;;
59998;SDS011;45859;51.378;6.736;2023-04-16T00:41:36;25.23;;;8.13;;
59998;SDS011;45859;51.378;6.736;2023-04-16T00:44:02;13.07;;;6.63;;
59998;SDS011;45859;51.378;6.736;2023-04-16T00:46:28;17.20;;;6.50;;
59998;SDS011;45859;51.378;6.736;2023-04-16T00:48:54;13.27;;;7.77;;
59998;SDS011;45859;51.378;6.736;2023-04-16T00:51:20;19.70;;;7.63;;
59998;SDS011;45859;51.378;6.736;2023-04-16T00:53:46;19.17;;;8.67;;
59998;SDS011;45859;51.378;6.736;2023-04-16T00:56:12;32.73;;;18.83;;
59998;SDS011;45859;51.378;6.736;2023-04-16T00:58:38;25.23;;;16.13;;
59998;SDS011;45859;51.378;6.736;2023-04-16T01:01:04;18.47;;;7.30;;
59998;SDS011;45859;51.378;6.736;2023-04-16T01:03:36;11.23;;;5.80;;
59998;SDS011;45859;51.378;6.736;2023-04-16T01:06:04;19.30;;;7.17;;
59998;SDS011;45859;51.378;6.736;2023-04-16T01:08:31;13.37;;;5.73;;
59998;SDS011;45859;51.378;6.736;2023-04-16T01:10:57;15.77;;;6.27;;
59998;SDS011;45859;51.378;6.736;2023-04-16T01:13:22;29.63;;;15.97;;
59998;SDS011;45859;51.378;6.736;2023-04-16T01:15:48;27.97;;;16.00;;
59998;SDS011;45859;51.378;6.736;2023-04-16T01:18:18;15.83;;;7.03;;
59998;SDS011;45859;51.378;6.736;2023-04-16T01:20:45;20.63;;;7.17;;
59998;SDS011;45859;51.378;6.736;2023-04-16T01:23:15;15.32;;;5.68;;
59998;SDS011;45859;51.378;6.736;2023-04-16T01:25:42;16.87;;;6.17;;
59998;SDS011;45859;51.378;6.736;2023-04-16T01:28:08;14.40;;;5.80;;
59998;SDS011;45859;51.378;6.736;2023-04-16T01:30:34;18.50;;;6.27;;
59998;SDS011;45859;51.378;6.736;2023-04-16T01:33:00;10.93;;;5.47;;
59998;SDS011;45859;51.378;6.736;2023-04-16T01:35:26;21.87;;;6.97;;
59998;SDS011;45859;51.378;6.736;2023-04-16T01:37:52;15.93;;;7.77;;
59998;SDS011;45859;51.378;6.736;2023-04-16T01:40:18;29.57;;;17.50;;
59998;SDS011;45859;51.378;6.736;2023-04-16T01:42:43;16.27;;;7.40;;
59998;SDS011;45859;51.378;6.736;2023-04-16T01:45:09;17.70;;;7.23;;
59998;SDS011;45859;51.378;6.736;2023-04-16T01:47:35;18.13;;;7.17;;
59998;SDS011;45859;51.378;6.736;2023-04-16T01:50:01;39.57;;;21.63;;
59998;SDS011;45859;51.378;6.736;2023-04-16T01:52:28;22.37;;;8.20;;
59998;SDS011;45859;51.378;6.736;2023-04-16T01:54:53;37.53;;;20.33;;
59998;SDS011;45859;51.378;6.736;2023-04-16T01:57:19;23.17;;;6.97;;
59998;SDS011;45859;51.378;6.736;2023-04-16T01:59:45;27.37;;;9.07;;
59998;SDS011;45859;51.378;6.736;2023-04-16T02:02:11;21.80;;;7.47;;
59998;SDS011;45859;51.378;6.736;2023-04-16T02:04:41;18.97;;;7.90;;
59998;SDS011;45859;51.378;6.736;2023-04-16T02:07:09;19.97;;;7.60;;
59998;SDS011;45859;51.378;6.736;2023-04-16T02:09:36;17.73;;;7.23;;
59998;SDS011;45859;51.378;6.736;2023-04-16T02:12:03;26.67;;;10.40;;
59998;SDS011;45859;51.378;6.736;2023-04-16T02:14:29;41.07;;;24.80;;
59998;SDS011;45859;51.378;6.736;2023-04-16T02:16:56;26.53;;;9.97;;
59998;SDS011;45859;51.378;6.736;2023-04-16T02:19:21;42.03;;;23.37;;
59998;SDS011;45859;51.378;6.736;2023-04-16T02:21:47;27.40;;;8.83;;
59998;SDS011;45859;51.378;6.736;2023-04-16T02:24:13;29.27;;;11.00;;
59998;SDS011;45859;51.378;6.736;2023-04-16T02:26:39;22.40;;;8.60;;
59998;SDS011;45859;51.378;6.736;2023-04-16T02:29:05;25.97;;;8.73;;
59998;SDS011;45859;51.378;6.736;2023-04-16T02:31:30;42.43;;;24.57;;
59998;SDS011;45859;51.378;6.736;2023-04-16T02:33:56;28.17;;;9.17;;
59998;SDS011;45859;51.378;6.736;2023-04-16T02:36:22;15.23;;;6.40;;
59998;SDS011;45859;51.378;6.736;2023-04-16T02:38:48;24.03;;;10.13;;
59998;SDS011;45859;51.378;6.736;2023-04-16T02:41:14;29.30;;;10.27;;
59998;SDS011;45859;51.378;6.736;2023-04-16T02:43:39;26.20;;;10.20;;
59998;SDS011;45859;51.378;6.736;2023-04-16T02:46:05;27.70;;;11.23;;
59998;SDS011;45859;51.378;6.736;2023-04-16T02:48:31;27.60;;;9.43;;
59998;SDS011;45859;51.378;6.736;2023-04-16T02:50:57;26.50;;;9.50;;
59998;SDS011;45859;51.378;6.736;2023-04-16T02:53:22;30.97;;;11.87;;
59998;SDS011;45859;51.378;6.736;2023-04-16T02:55:51;50.63;;;29.47;;
59998;SDS011;45859;51.378;6.736;2023-04-16T02:58:19;52.33;;;29.77;;
59998;SDS011;45859;51.378;6.736;2023-04-16T03:00:45;26.83;;;8.23;;
59998;SDS011;45859;51.378;6.736;2023-04-16T03:03:11;57.50;;;30.77;;
59998;SDS011;45859;51.378;6.736;2023-04-16T03:05:37;32.13;;;13.40;;
59998;SDS011;45859;51.378;6.736;2023-04-16T03:08:03;28.87;;;12.20;;
59998;SDS011;45859;51.378;6.736;2023-04-16T03:10:29;32.50;;;11.83;;
59998;SDS011;45859;51.378;6.736;2023-04-16T03:12:55;34.53;;;12.33;;
59998;SDS011;45859;51.378;6.736;2023-04-16T03:15:21;51.47;;;30.03;;
59998;SDS011;45859;51.378;6.736;2023-04-16T03:17:47;24.80;;;10.43;;
59998;SDS011;45859;51.378;6.736;2023-04-16T03:20:12;30.27;;;12.10;;
59998;SDS011;45859;51.378;6.736;2023-04-16T03:22:41;33.97;;;13.23;;
59998;SDS011;45859;51.378;6.736;2023-04-16T03:25:07;31.83;;;10.77;;
59998;SDS011;45859;51.378;6.736;2023-04-16T03:27:33;36.27;;;11.60;;
59998;SDS011;45859;51.378;6.736;2023-04-16T03:30:00;32.00;;;11.53;;
59998;SDS011;45859;51.378;6.736;2023-04-16T03:32:26;34.80;;;12.27;;
59998;SDS011;45859;51.378;6.736;2023-04-16T03:34:51;51.13;;;30.80;;
59998;SDS011;45859;51.378;6.736;2023-04-16T03:37:17;30.10;;;11.07;;
59998;SDS011;45859;51.378;6.736;2023-04-16T03:39:43;31.00;;;11.13;;
59998;SDS011;45859;51.378;6.736;2023-04-16T03:42:08;48.37;;;29.03;;
59998;SDS011;45859;51.378;6.736;2023-04-16T03:44:34;25.93;;;11.80;;
59998;SDS011;45859;51.378;6.736;2023-04-16T03:47:00;38.73;;;12.30;;
59998;SDS011;45859;51.378;6.736;2023-04-16T03:49:25;45.00;;;25.70;;
59998;SDS011;45859;51.378;6.736;2023-04-16T03:51:51;24.77;;;9.57;;
59998;SDS011;45859;51.378;6.736;2023-04-16T03:54:17;44.27;;;27.27;;
59998;SDS011;45859;51.378;6.736;2023-04-16T03:56:42;27.83;;;11.03;;
59998;SDS011;45859;51.378;6.736;2023-04-16T03:59:08;26.13;;;9.83;;
59998;SDS011;45859;51.378;6.736;2023-04-16T04:01:34;24.93;;;11.00;;
59998;SDS011;45859;51.378;6.736;2023-04-16T04:04:00;31.40;;;11.73;;
59998;SDS011;45859;51.378;6.736;2023-04-16T04:06:25;28.23;;;10.47;;
59998;SDS011;45859;51.378;6.736;2023-04-16T04:08:51;48.93;;;29.00;;
59998;SDS011;45859;51.378;6.736;2023-04-16T04:11:17;30.20;;;10.93;;
59998;SDS011;45859;51.378;6.736;2023-04-16T04:13:43;25.20;;;11.27;;
59998;SDS011;45859;51.378;6.736;2023-04-16T04:16:09;29.23;;;10.03;;
59998;SDS011;45859;51.378;6.736;2023-04-16T04:18:34;26.53;;;11.00;;
59998;SDS011;45859;51.378;6.736;2023-04-16T04:21:07;44.50;;;26.20;;
59998;SDS011;45859;51.378;6.736;2023-04-16T04:23:33;29.23;;;11.10;;
59998;SDS011;45859;51.378;6.736;2023-04-16T04:26:00;25.83;;;9.93;;
59998;SDS011;45859;51.378;6.736;2023-04-16T04:28:32;24.60;;;8.67;;
59998;SDS011;45859;51.378;6.736;2023-04-16T04:30:59;43.10;;;26.20;;
59998;SDS011;45859;51.378;6.736;2023-04-16T04:33:25;33.33;;;11.10;;
59998;SDS011;45859;51.378;6.736;2023-04-16T04:35:51;31.10;;;10.20;;
59998;SDS011;45859;51.378;6.736;2023-04-16T04:38:17;25.23;;;9.53;;
59998;SDS011;45859;51.378;6.736;2023-04-16T04:40:45;53.90;;;29.30;;
59998;SDS011;45859;51.378;6.736;2023-04-16T04:43:11;18.23;;;7.80;;
59998;SDS011;45859;51.378;6.736;2023-04-16T04:45:36;37.17;;;12.10;;
59998;SDS011;45859;51.378;6.736;2023-04-16T04:48:02;55.43;;;29.07;;
59998;SDS011;45859;51.378;6.736;2023-04-16T04:50:28;23.57;;;9.87;;
59998;SDS011;45859;51.378;6.736;2023-04-16T04:52:53;35.00;;;12.00;;
59998;SDS011;45859;51.378;6.736;2023-04-16T04:55:19;37.70;;;12.67;;
59998;SDS011;45859;51.378;6.736;2023-04-16T04:57:45;35.80;;;11.80;;
59998;SDS011;45859;51.378;6.736;2023-04-16T05:00:11;22.30;;;9.30;;
59998;SDS011;45859;51.378;6.736;2023-04-16T05:02:36;53.20;;;30.57;;
59998;SDS011;45859;51.378;6.736;2023-04-16T05:05:02;27.63;;;11.87;;
59998;SDS011;45859;51.378;6.736;2023-04-16T05:07:28;29.23;;;12.73;;
59998;SDS011;45859;51.378;6.736;2023-04-16T05:09:54;32.00;;;12.50;;
59998;SDS011;45859;51.378;6.736;2023-04-16T05:12:20;64.83;;;33.80;;
59998;SDS011;45859;51.378;6.736;2023-04-16T05:14:46;37.23;;;13.57;;
59998;SDS011;45859;51.378;6.736;2023-04-16T05:17:11;36.30;;;13.10;;
59998;SDS011;45859;51.378;6.736;2023-04-16T05:19:37;29.43;;;12.60;;
59998;SDS011;45859;51.378;6.736;2023-04-16T05:22:03;33.40;;;13.13;;
59998;SDS011;45859;51.378;6.736;2023-04-16T05:24:28;58.03;;;33.93;;
59998;SDS011;45859;51.378;6.736;2023-04-16T05:26:55;64.80;;;33.50;;
59998;SDS011;45859;51.378;6.736;2023-04-16T05:29:21;60.83;;;32.57;;
59998;SDS011;45859;51.378;6.736;2023-04-16T05:31:47;35.30;;;12.47;;
59998;SDS011;45859;51.378;6.736;2023-04-16T05:34:13;47.57;;;14.53;;
59998;SDS011;45859;51.378;6.736;2023-04-16T05:36:39;27.30;;;9.87;;
59998;SDS011;45859;51.378;6.736;2023-04-16T05:39:05;62.50;;;36.00;;
59998;SDS011;45859;51.378;6.736;2023-04-16T05:41:31;32.37;;;11.70;;
59998;SDS011;45859;51.378;6.736;2023-04-16T05:43:58;57.73;;;34.57;;
59998;SDS011;45859;51.378;6.736;2023-04-16T05:46:23;36.53;;;13.43;;
59998;SDS011;45859;51.378;6.736;2023-04-16T05:48:49;37.10;;;12.30;;
59998;SDS011;45859;51.378;6.736;2023-04-16T05:51:15;34.00;;;14.73;;
59998;SDS011;45859;51.378;6.736;2023-04-16T05:53:41;35.47;;;12.70;;
59998;SDS011;45859;51.378;6.736;2023-04-16T05:56:07;33.03;;;11.67;;
59998;SDS011;45859;51.378;6.736;2023-04-16T05:58:32;31.37;;;9.93;;
59998;SDS011;45859;51.378;6.736;2023-04-16T06:00:59;42.30;;;12.67;;
59998;SDS011;45859;51.378;6.736;2023-04-16T06:03:25;32.90;;;12.73;;
59998;SDS011;45859;51.378;6.736;2023-04-16T06:05:51;35.33;;;13.83;;
59998;SDS011;45859;51.378;6.736;2023-04-16T06:08:17;38.13;;;12.10;;
59998;SDS011;45859;51.378;6.736;2023-04-16T06:10:44;58.87;;;34.83;;
59998;SDS011;45859;51.378;6.736;2023-04-16T06:13:11;30.27;;;13.30;;
59998;SDS011;45859;51.378;6.736;2023-04-16T06:15:37;26.77;;;11.40;;
59998;SDS011;45859;51.378;6.736;2023-04-16T06:18:02;28.17;;;12.50;;
59998;SDS011;45859;51.378;6.736;2023-04-16T06:20:28;49.20;;;30.53;;
59998;SDS011;45859;51.378;6.736;2023-04-16T06:22:54;49.70;;;30.00;;
59998;SDS011;45859;51.378;6.736;2023-04-16T06:25:20;51.03;;;30.23;;
59998;SDS011;45859;51.378;6.736;2023-04-16T06:27:46;26.67;;;8.57;;
59998;SDS011;45859;51.378;6.736;2023-04-16T06:30:12;29.20;;;11.77;;
59998;SDS011;45859;51.378;6.736;2023-04-16T06:32:39;29.70;;;11.30;;
59998;SDS011;45859;51.378;6.736;2023-04-16T06:35:08;51.93;;;32.07;;
59998;SDS011;45859;51.378;6.736;2023-04-16T06:37:34;25.27;;;10.70;;
59998;SDS011;45859;51.378;6.736;2023-04-16T06:40:00;30.87;;;12.37;;
59998;SDS011;45859;51.378;6.736;2023-04-16T06:42:26;40.13;;;14.00;;
59998;SDS011;45859;51.378;6.736;2023-04-16T06:44:52;40.73;;;15.37;;
59998;SDS011;45859;51.378;6.736;2023-04-16T06:47:17;63.90;;;37.13;;
59998;SDS011;45859;51.378;6.736;2023-04-16T06:49:43;43.23;;;15.80;;
59998;SDS011;45859;51.378;6.736;2023-04-16T06:52:09;36.03;;;14.03;;
59998;SDS011;45859;51.378;6.736;2023-04-16T06:54:35;50.53;;;17.33;;
59998;SDS011;45859;51.378;6.736;2023-04-16T06:57:01;55.70;;;34.27;;
59998;SDS011;45859;51.378;6.736;2023-04-16T06:59:26;37.10;;;14.60;;
59998;SDS011;45859;51.378;6.736;2023-04-16T07:01:52;42.03;;;15.93;;
59998;SDS011;45859;51.378;6.736;2023-04-16T07:04:18;37.47;;;13.70;;
59998;SDS011;45859;51.378;6.736;2023-04-16T07:06:44;47.83;;;30.77;;
59998;SDS011;45859;51.378;6.736;2023-04-16T07:09:10;52.67;;;32.80;;
59998;SDS011;45859;51.378;6.736;2023-04-16T07:11:35;36.20;;;11.03;;
59998;SDS011;45859;51.378;6.736;2023-04-16T07:14:01;35.20;;;13.73;;
59998;SDS011;45859;51.378;6.736;2023-04-16T07:16:27;33.23;;;12.73;;
59998;SDS011;45859;51.378;6.736;2023-04-16T07:18:52;46.00;;;29.50;;
59998;SDS011;45859;51.378;6.736;2023-04-16T07:21:18;33.10;;;13.80;;
59998;SDS011;45859;51.378;6.736;2023-04-16T07:23:45;26.73;;;12.33;;
59998;SDS011;45859;51.378;6.736;2023-04-16T07:26:10;33.87;;;13.90;;
59998;SDS011;45859;51.378;6.736;2023-04-16T07:28:36;32.97;;;14.10;;
59998;SDS011;45859;51.378;6.736;2023-04-16T07:31:02;29.43;;;13.10;;
59998;SDS011;45859;51.378;6.736;2023-04-16T07:33:27;28.90;;;12.53;;
59998;SDS011;45859;51.378;6.736;2023-04-16T07:35:53;30.03;;;11.63;;
59998;SDS011;45859;51.378;6.736;2023-04-16T07:38:20;27.83;;;13.20;;
59998;SDS011;45859;51.378;6.736;2023-04-16T07:40:46;38.87;;;26.47;;
59998;SDS011;45859;51.378;6.736;2023-04-16T07:43:12;40.23;;;28.23;;
59998;SDS011;45859;51.378;6.736;2023-04-16T07:45:39;38.67;;;27.17;;
59998;SDS011;45859;51.378;6.736;2023-04-16T07:48:04;38.67;;;27.77;;
59998;SDS011;45859;51.378;6.736;2023-04-16T07:50:30;36.03;;;26.07;;
59998;SDS011;45859;51.378;6.736;2023-04-16T07:52:56;29.13;;;11.83;;
59998;SDS011;45859;51.378;6.736;2023-04-16T07:55:22;39.47;;;27.50;;
59998;SDS011;45859;51.378;6.736;2023-04-16T07:57:47;36.50;;;25.17;;
59998;SDS011;45859;51.378;6.736;2023-04-16T08:00:13;38.00;;;26.37;;
59998;SDS011;45859;51.378;6.736;2023-04-16T08:02:39;35.87;;;27.03;;
59998;SDS011;45859;51.378;6.736;2023-04-16T08:05:05;39.67;;;27.27;;
59998;SDS011;45859;51.378;6.736;2023-04-16T08:07:31;40.90;;;26.80;;
59998;SDS011;45859;51.378;6.736;2023-04-16T08:09:57;35.40;;;26.43;;
59998;SDS011;45859;51.378;6.736;2023-04-16T08:12:23;33.93;;;25.37;;
59998;SDS011;45859;51.378;6.736;2023-04-16T08:14:49;38.63;;;27.07;;
59998;SDS011;45859;51.378;6.736;2023-04-16T08:17:14;36.83;;;27.33;;
59998;SDS011;45859;51.378;6.736;2023-04-16T08:19:41;29.63;;;12.80;;
59998;SDS011;45859;51.378;6.736;2023-04-16T08:22:09;33.47;;;25.67;;
59998;SDS011;45859;51.378;6.736;2023-04-16T08:24:35;37.97;;;27.13;;
59998;SDS011;45859;51.378;6.736;2023-04-16T08:27:01;34.60;;;25.73;;
59998;SDS011;45859;51.378;6.736;2023-04-16T08:29:27;38.67;;;27.23;;
59998;SDS011;45859;51.378;6.736;2023-04-16T08:31:52;39.90;;;27.10;;
59998;SDS011;45859;51.378;6.736;2023-04-16T08:34:18;40.90;;;27.50;;
59998;SDS011;45859;51.378;6.736;2023-04-16T08:36:44;32.80;;;25.37;;
59998;SDS011;45859;51.378;6.736;2023-04-16T08:39:10;35.90;;;25.77;;
59998;SDS011;45859;51.378;6.736;2023-04-16T08:41:37;33.73;;;25.27;;
59998;SDS011;45859;51.378;6.736;2023-04-16T08:44:07;37.00;;;24.90;;
59998;SDS011;45859;51.378;6.736;2023-04-16T08:46:36;31.47;;;23.63;;
59998;SDS011;45859;51.378;6.736;2023-04-16T08:51:32;33.53;;;23.57;;
59998;SDS011;45859;51.378;6.736;2023-04-16T08:54:03;31.57;;;23.03;;
59998;SDS011;45859;51.378;6.736;2023-04-16T08:56:34;31.13;;;22.07;;
59998;SDS011;45859;51.378;6.736;2023-04-16T08:59:00;29.70;;;21.77;;
59998;SDS011;45859;51.378;6.736;2023-04-16T09:01:30;29.37;;;22.40;;
59998;SDS011;45859;51.378;6.736;2023-04-16T09:03:57;26.60;;;21.53;;
59998;SDS011;45859;51.378;6.736;2023-04-16T09:06:26;27.63;;;21.03;;
59998;SDS011;45859;51.378;6.736;2023-04-16T09:08:52;32.77;;;23.37;;
59998;SDS011;45859;51.378;6.736;2023-04-16T09:11:18;27.90;;;21.60;;
59998;SDS011;45859;51.378;6.736;2023-04-16T09:13:45;28.33;;;21.97;;
59998;SDS011;45859;51.378;6.736;2023-04-16T09:16:12;32.23;;;22.27;;
59998;SDS011;45859;51.378;6.736;2023-04-16T09:18:38;32.73;;;22.53;;
59998;SDS011;45859;51.378;6.736;2023-04-16T09:21:04;28.90;;;22.20;;
59998;SDS011;45859;51.378;6.736;2023-04-16T09:23:33;30.03;;;22.50;;
59998;SDS011;45859;51.378;6.736;2023-04-16T09:25:59;28.70;;;21.20;;
59998;SDS011;45859;51.378;6.736;2023-04-16T09:31:14;29.53;;;21.80;;
59998;SDS011;45859;51.378;6.736;2023-04-16T09:33:41;26.17;;;21.23;;
59998;SDS011;45859;51.378;6.736;2023-04-16T09:36:15;25.97;;;21.63;;
59998;SDS011;45859;51.378;6.736;2023-04-16T09:38:47;28.93;;;21.63;;
59998;SDS011;45859;51.378;6.736;2023-04-16T09:41:14;29.83;;;21.27;;
59998;SDS011;45859;51.378;6.736;2023-04-16T09:43:41;29.10;;;22.17;;
59998;SDS011;45859;51.378;6.736;2023-04-16T09:46:35;27.90;;;20.93;;
59998;SDS011;45859;51.378;6.736;2023-04-16T09:49:09;29.90;;;21.67;;
59998;SDS011;45859;51.378;6.736;2023-04-16T09:51:35;29.60;;;21.60;;
59998;SDS011;45859;51.378;6.736;2023-04-16T09:54:03;28.40;;;21.17;;
59998;SDS011;45859;51.378;6.736;2023-04-16T09:56:29;25.80;;;20.03;;
59998;SDS011;45859;51.378;6.736;2023-04-16T09:58:55;26.47;;;20.60;;
59998;SDS011;45859;51.378;6.736;2023-04-16T10:01:23;27.67;;;19.80;;
59998;SDS011;45859;51.378;6.736;2023-04-16T10:03:51;27.37;;;20.40;;
59998;SDS011;45859;51.378;6.736;2023-04-16T10:06:18;28.87;;;20.47;;
59998;SDS011;45859;51.378;6.736;2023-04-16T10:08:50;30.30;;;21.03;;
59998;SDS011;45859;51.378;6.736;2023-04-16T10:11:22;26.13;;;20.60;;
59998;SDS011;45859;51.378;6.736;2023-04-16T10:13:48;26.80;;;20.60;;
59998;SDS011;45859;51.378;6.736;2023-04-16T10:16:15;25.00;;;20.17;;
59998;SDS011;45859;51.378;6.736;2023-04-16T10:18:42;25.20;;;20.80;;
59998;SDS011;45859;51.378;6.736;2023-04-16T10:21:09;26.07;;;20.87;;
59998;SDS011;45859;51.378;6.736;2023-04-16T10:23:39;27.35;;;20.65;;
59998;SDS011;45859;51.378;6.736;2023-04-16T10:26:05;24.23;;;18.53;;
59998;SDS011;45859;51.378;6.736;2023-04-16T10:28:31;26.10;;;20.17;;
59998;SDS011;45859;51.378;6.736;2023-04-16T10:30:59;29.10;;;21.50;;
59998;SDS011;45859;51.378;6.736;2023-04-16T10:33:27;24.10;;;20.67;;
59998;SDS011;45859;51.378;6.736;2023-04-16T10:36:07;26.83;;;20.10;;
59998;SDS011;45859;51.378;6.736;2023-04-16T10:38:36;27.20;;;20.77;;
59998;SDS011;45859;51.378;6.736;2023-04-16T10:41:04;25.97;;;20.13;;
59998;SDS011;45859;51.378;6.736;2023-04-16T10:43:31;28.70;;;20.40;;
59998;SDS011;45859;51.378;6.736;2023-04-16T10:46:24;27.33;;;20.50;;
59998;SDS011;45859;51.378;6.736;2023-04-16T10:48:55;28.03;;;21.23;;
59998;SDS011;45859;51.378;6.736;2023-04-16T10:51:29;27.00;;;20.58;;
59998;SDS011;45859;51.378;6.736;2023-04-16T10:53:57;24.40;;;19.90;;
59998;SDS011;45859;51.378;6.736;2023-04-16T10:56:32;29.90;;;22.37;;
59998;SDS011;45859;51.378;6.736;2023-04-16T10:59:00;30.70;;;22.00;;
59998;SDS011;45859;51.378;6.736;2023-04-16T11:01:33;26.67;;;20.60;;
59998;SDS011;45859;51.378;6.736;2023-04-16T11:04:24;25.38;;;20.95;;
59998;SDS011;45859;51.378;6.736;2023-04-16T11:12:12;25.60;;;17.97;;
59998;SDS011;45859;51.378;6.736;2023-04-16T11:14:40;21.33;;;17.70;;
59998;SDS011;45859;51.378;6.736;2023-04-16T11:17:06;22.07;;;18.10;;
59998;SDS011;45859;51.378;6.736;2023-04-16T11:19:36;22.00;;;19.03;;
59998;SDS011;45859;51.378;6.736;2023-04-16T11:22:02;24.70;;;18.93;;
59998;SDS011;45859;51.378;6.736;2023-04-16T11:24:28;18.47;;;15.40;;
59998;SDS011;45859;51.378;6.736;2023-04-16T11:26:55;17.53;;;15.70;;
59998;SDS011;45859;51.378;6.736;2023-04-16T11:29:20;22.00;;;17.77;;
59998;SDS011;45859;51.378;6.736;2023-04-16T11:31:52;22.63;;;17.53;;
59998;SDS011;45859;51.378;6.736;2023-04-16T11:34:19;21.17;;;17.93;;
59998;SDS011;45859;51.378;6.736;2023-04-16T11:36:45;22.60;;;19.17;;
59998;SDS011;45859;51.378;6.736;2023-04-16T11:39:12;22.20;;;18.47;;
59998;SDS011;45859;51.378;6.736;2023-04-16T11:41:44;22.83;;;17.27;;
59998;SDS011;45859;51.378;6.736;2023-04-16T11:44:18;17.27;;;15.27;;
59998;SDS011;45859;51.378;6.736;2023-04-16T11:46:48;18.83;;;15.80;;
59998;SDS011;45859;51.378;6.736;2023-04-16T11:49:14;17.57;;;15.37;;
59998;SDS011;45859;51.378;6.736;2023-04-16T11:51:44;18.03;;;15.20;;
59998;SDS011;45859;51.378;6.736;2023-04-16T11:54:17;17.80;;;14.77;;
59998;SDS011;45859;51.378;6.736;2023-04-16T11:56:45;15.90;;;14.20;;
59998;SDS011;45859;51.378;6.736;2023-04-16T12:01:39;15.80;;;14.00;;
59998;SDS011;45859;51.378;6.736;2023-04-16T12:04:06;16.73;;;14.30;;
59998;SDS011;45859;51.378;6.736;2023-04-16T12:06:32;17.93;;;14.57;;
59998;SDS011;45859;51.378;6.736;2023-04-16T12:08:58;18.40;;;14.30;;
59998;SDS011;45859;51.378;6.736;2023-04-16T12:11:40;14.97;;;13.27;;
59998;SDS011;45859;51.378;6.736;2023-04-16T12:14:07;19.20;;;14.07;;
59998;SDS011;45859;51.378;6.736;2023-04-16T12:16:36;19.92;;;15.02;;
59998;SDS011;45859;51.378;6.736;2023-04-16T12:19:02;16.58;;;14.35;;
59998;SDS011;45859;51.378;6.736;2023-04-16T12:21:39;17.17;;;14.55;;
59998;SDS011;45859;51.378;6.736;2023-04-16T12:24:13;15.50;;;13.90;;
59998;SDS011;45859;51.378;6.736;2023-04-16T12:26:46;16.60;;;13.38;;
59998;SDS011;45859;51.378;6.736;2023-04-16T12:29:23;14.93;;;13.20;;
59998;SDS011;45859;51.378;6.736;2023-04-16T12:31:49;14.95;;;12.40;;
59998;SDS011;45859;51.378;6.736;2023-04-16T12:34:16;14.45;;;12.95;;
59998;SDS011;45859;51.378;6.736;2023-04-16T12:36:43;16.33;;;13.45;;
59998;SDS011;45859;51.378;6.736;2023-04-16T12:39:10;15.88;;;13.45;;
59998;SDS011;45859;51.378;6.736;2023-04-16T12:41:36;16.13;;;13.48;;
59998;SDS011;45859;51.378;6.736;2023-04-16T12:44:05;16.13;;;14.43;;
59998;SDS011;45859;51.378;6.736;2023-04-16T12:46:33;15.60;;;13.45;;
59998;SDS011;45859;51.378;6.736;2023-04-16T12:49:00;16.67;;;14.53;;
59998;SDS011;45859;51.378;6.736;2023-04-16T12:51:26;16.88;;;14.23;;
59998;SDS011;45859;51.378;6.736;2023-04-16T12:53:54;16.75;;;14.98;;
59998;SDS011;45859;51.378;6.736;2023-04-16T12:56:19;16.27;;;14.40;;
59998;SDS011;45859;51.378;6.736;2023-04-16T12:58:45;16.85;;;15.00;;
59998;SDS011;45859;51.378;6.736;2023-04-16T13:01:14;18.10;;;15.48;;
59998;SDS011;45859;51.378;6.736;2023-04-16T13:03:39;16.73;;;14.70;;
59998;SDS011;45859;51.378;6.736;2023-04-16T13:06:06;17.63;;;14.80;;
59998;SDS011;45859;51.378;6.736;2023-04-16T13:08:32;16.93;;;14.57;;
59998;SDS011;45859;51.378;6.736;2023-04-16T13:10:57;17.00;;;14.93;;
59998;SDS011;45859;51.378;6.736;2023-04-16T13:13:23;16.60;;;14.90;;
59998;SDS011;45859;51.378;6.736;2023-04-16T13:15:49;20.52;;;15.77;;
59998;SDS011;45859;51.378;6.736;2023-04-16T13:18:14;18.10;;;14.97;;
59998;SDS011;45859;51.378;6.736;2023-04-16T13:20:40;19.63;;;15.77;;
59998;SDS011;45859;51.378;6.736;2023-04-16T13:23:06;17.03;;;15.23;;
59998;SDS011;45859;51.378;6.736;2023-04-16T13:25:31;17.63;;;15.30;;
59998;SDS011;45859;51.378;6.736;2023-04-16T13:27:57;18.90;;;15.60;;
59998;SDS011;45859;51.378;6.736;2023-04-16T13:30:22;16.87;;;15.07;;
59998;SDS011;45859;51.378;6.736;2023-04-16T13:32:49;18.33;;;15.40;;
59998;SDS011;45859;51.378;6.736;2023-04-16T13:35:15;18.43;;;15.37;;
59998;SDS011;45859;51.378;6.736;2023-04-16T13:37:40;19.17;;;15.37;;
59998;SDS011;45859;51.378;6.736;2023-04-16T13:40:06;17.80;;;14.93;;
59998;SDS011;45859;51.378;6.736;2023-04-16T13:42:32;20.00;;;14.73;;
59998;SDS011;45859;51.378;6.736;2023-04-16T13:44:58;18.90;;;16.20;;
59998;SDS011;45859;51.378;6.736;2023-04-16T13:47:23;17.23;;;15.43;;
59998;SDS011;45859;51.378;6.736;2023-04-16T13:49:49;16.93;;;15.13;;
59998;SDS011;45859;51.378;6.736;2023-04-16T13:52:15;18.03;;;15.80;;
59998;SDS011;45859;51.378;6.736;2023-04-16T13:54:40;18.67;;;16.07;;
59998;SDS011;45859;51.378;6.736;2023-04-16T13:57:06;15.87;;;14.17;;
59998;SDS011;45859;51.378;6.736;2023-04-16T13:59:32;17.77;;;15.30;;
59998;SDS011;45859;51.378;6.736;2023-04-16T14:01:57;18.50;;;15.43;;
59998;SDS011;45859;51.378;6.736;2023-04-16T14:04:23;17.30;;;15.45;;
59998;SDS011;45859;51.378;6.736;2023-04-16T14:06:49;17.97;;;14.93;;
59998;SDS011;45859;51.378;6.736;2023-04-16T14:09:15;18.13;;;15.43;;
59998;SDS011;45859;51.378;6.736;2023-04-16T14:11:40;18.52;;;14.85;;
59998;SDS011;45859;51.378;6.736;2023-04-16T14:14:06;18.20;;;15.48;;
59998;SDS011;45859;51.378;6.736;2023-04-16T14:16:32;17.67;;;15.18;;
59998;SDS011;45859;51.378;6.736;2023-04-16T14:18:58;16.50;;;14.80;;
59998;SDS011;45859;51.378;6.736;2023-04-16T14:21:24;16.33;;;14.70;;
59998;SDS011;45859;51.378;6.736;2023-04-16T14:23:50;15.80;;;14.25;;
59998;SDS011;45859;51.378;6.736;2023-04-16T14:26:16;18.93;;;14.67;;
59998;SDS011;45859;51.378;6.736;2023-04-16T14:28:42;17.45;;;15.48;;
59998;SDS011;45859;51.378;6.736;2023-04-16T14:31:08;17.48;;;14.57;;
59998;SDS011;45859;51.378;6.736;2023-04-16T14:33:34;16.63;;;14.83;;